Time,TemperatureF,DewpointF,PressureIn,WindDirection,WindDirectionDegrees,WindSpeedMPH,WindSpeedGustMPH,Humidity,HourlyPrecipIn,Conditions,Clouds,dailyrainin,SoftwareType,DateUTC
2013-06-18 00:01:00,77.7,71.4,29.98,SW,236,0.0,0.0,81,0.00,,,0.00,meteohub,2013-06-18 04:01:00,
2013-06-18 00:02:00,77.7,71.4,29.98,SW,236,0.0,0.0,81,0.00,,,0.00,meteohub,2013-06-18 04:02:00,
2013-06-18 00:06:00,77.5,71.2,29.98,SW,236,0.0,0.0,81,0.00,,,0.00,meteohub,2013-06-18 04:06:00,
2013-06-18 00:11:00,77.5,71.6,29.98,SW,236,0.0,0.0,82,0.00,,,0.00,meteohub,2013-06-18 04:11:00,
2013-06-18 00:16:00,77.5,71.6,29.98,SW,236,0.0,0.0,82,0.00,,,0.00,meteohub,2013-06-18 04:16:00,
2013-06-18 00:21:00,77.4,71.4,29.99,SW,236,0.0,0.0,82,0.00,,,0.00,meteohub,2013-06-18 04:21:00,
2013-06-18 00:26:00,77.2,71.2,29.99,SW,236,0.0,0.0,82,0.00,,,0.00,meteohub,2013-06-18 04:26:00,
2013-06-18 00:31:00,77.0,70.7,29.99,SW,236,0.0,0.0,81,0.00,,,0.00,meteohub,2013-06-18 04:31:00,
2013-06-18 00:36:00,76.8,70.9,29.99,SW,236,0.0,0.0,82,0.00,,,0.00,meteohub,2013-06-18 04:36:00,
2013-06-18 00:41:00,76.6,70.7,29.99,SW,236,0.0,0.0,82,0.00,,,0.00,meteohub,2013-06-18 04:41:00,
2013-06-18 00:46:00,76.6,71.1,29.99,SW,236,0.0,0.0,83,0.00,,,0.00,meteohub,2013-06-18 04:46:00,
2013-06-18 00:51:00,76.6,70.7,29.99,SW,236,0.0,0.0,82,0.00,,,0.00,meteohub,2013-06-18 04:51:00,
2013-06-18 00:56:00,76.5,70.9,29.99,SW,236,0.0,0.0,83,0.00,,,0.00,meteohub,2013-06-18 04:56:00,
2013-06-18 01:02:00,76.5,70.9,29.99,SW,236,0.0,0.0,83,0.00,,,0.00,meteohub,2013-06-18 05:02:00,
2013-06-18 01:07:00,76.3,70.7,29.99,SW,236,0.0,0.0,83,0.00,,,0.00,meteohub,2013-06-18 05:07:00,
2013-06-18 01:12:00,76.3,70.7,29.99,SW,236,0.0,0.0,83,0.00,,,0.00,meteohub,2013-06-18 05:12:00,
2013-06-18 01:17:00,76.3,70.7,29.99,SW,236,0.0,0.0,83,0.00,,,0.00,meteohub,2013-06-18 05:17:00,
2013-06-18 01:22:00,76.1,70.5,29.98,SW,236,0.0,0.0,83,0.00,,,0.00,meteohub,2013-06-18 05:22:00,
2013-06-18 01:27:00,75.9,70.3,29.98,SW,236,0.0,0.0,83,0.00,,,0.00,meteohub,2013-06-18 05:27:00,
2013-06-18 01:32:00,75.9,70.3,29.98,SW,236,0.0,0.0,83,0.00,,,0.00,meteohub,2013-06-18 05:32:00,
2013-06-18 01:37:00,75.9,70.3,29.98,SW,236,0.0,0.0,83,0.00,,,0.00,meteohub,2013-06-18 05:37:00,
2013-06-18 01:42:00,75.9,70.7,29.98,SW,236,0.0,0.0,84,0.00,,,0.00,meteohub,2013-06-18 05:42:00,
2013-06-18 01:47:00,75.9,70.7,29.98,SW,236,0.0,0.0,84,0.00,,,0.00,meteohub,2013-06-18 05:47:00,
2013-06-18 01:52:00,75.9,70.7,29.97,SW,236,0.0,0.0,84,0.00,,,0.00,meteohub,2013-06-18 05:52:00,
2013-06-18 01:57:00,75.9,70.7,29.97,SW,236,0.0,0.0,84,0.00,,,0.00,meteohub,2013-06-18 05:57:00,
2013-06-18 02:02:00,76.1,71.2,29.97,SW,236,0.0,0.0,85,0.00,,,0.00,meteohub,2013-06-18 06:02:00,
2013-06-18 02:07:00,76.3,71.4,29.97,SW,236,0.0,0.0,85,0.00,,,0.00,meteohub,2013-06-18 06:07:00,
2013-06-18 02:12:00,76.3,71.4,29.97,SW,236,0.0,0.0,85,0.00,,,0.00,meteohub,2013-06-18 06:12:00,
2013-06-18 02:17:00,76.1,71.2,29.97,SW,236,0.0,0.0,85,0.00,,,0.00,meteohub,2013-06-18 06:17:00,
2013-06-18 02:22:00,76.1,71.2,29.96,SW,236,0.0,1.0,85,0.00,,,0.00,meteohub,2013-06-18 06:22:00,
2013-06-18 02:27:00,76.1,71.2,29.96,SW,234,0.0,1.0,85,0.00,,,0.00,meteohub,2013-06-18 06:27:00,
2013-06-18 02:32:00,75.7,70.9,29.96,SW,224,0.0,1.0,85,0.00,,,0.00,meteohub,2013-06-18 06:32:00,
2013-06-18 02:37:00,75.6,70.7,29.96,NW,325,0.0,2.0,85,0.00,,,0.00,meteohub,2013-06-18 06:37:00,
2013-06-18 02:42:00,75.4,70.5,29.96,NW,325,0.0,2.0,85,0.00,,,0.00,meteohub,2013-06-18 06:42:00,
2013-06-18 02:47:00,75.0,70.2,29.96,NW,325,0.0,2.0,85,0.00,,,0.00,meteohub,2013-06-18 06:47:00,
2013-06-18 02:52:00,74.8,70.0,29.96,NW,325,0.0,1.0,85,0.00,,,0.00,meteohub,2013-06-18 06:52:00,
2013-06-18 02:57:00,74.8,70.0,29.96,NW,325,0.0,1.0,85,0.00,,,0.00,meteohub,2013-06-18 06:57:00,
2013-06-18 03:02:00,74.7,69.8,29.96,NW,325,0.0,0.0,85,0.00,,,0.00,meteohub,2013-06-18 07:02:00,
2013-06-18 03:07:00,74.7,69.8,29.96,NW,325,0.0,0.0,85,0.00,,,0.00,meteohub,2013-06-18 07:07:00,
2013-06-18 03:12:00,74.7,69.8,29.96,NW,325,0.0,0.0,85,0.00,,,0.00,meteohub,2013-06-18 07:12:00,
2013-06-18 03:17:00,74.5,69.6,29.96,NW,325,0.0,0.0,85,0.00,,,0.00,meteohub,2013-06-18 07:17:00,
2013-06-18 03:22:00,74.5,69.6,29.95,NW,325,0.0,0.0,85,0.00,,,0.00,meteohub,2013-06-18 07:22:00,
2013-06-18 03:27:00,74.1,69.3,29.95,NW,325,0.0,0.0,85,0.00,,,0.00,meteohub,2013-06-18 07:27:00,
2013-06-18 03:32:00,74.1,69.3,29.95,NW,325,0.0,0.0,85,0.00,,,0.00,meteohub,2013-06-18 07:32:00,
2013-06-18 03:37:00,74.1,69.6,29.95,NW,325,0.0,0.0,86,0.00,,,0.00,meteohub,2013-06-18 07:37:00,
2013-06-18 03:42:00,73.9,69.4,29.95,NW,325,0.0,0.0,86,0.00,,,0.00,meteohub,2013-06-18 07:42:00,
2013-06-18 03:47:00,73.9,69.4,29.95,NW,325,0.0,0.0,86,0.00,,,0.00,meteohub,2013-06-18 07:47:00,
2013-06-18 03:52:00,73.9,69.4,29.95,NW,325,0.0,0.0,86,0.00,,,0.00,meteohub,2013-06-18 07:52:00,
2013-06-18 03:57:00,73.9,69.4,29.95,NW,325,1.0,1.0,86,0.00,,,0.00,meteohub,2013-06-18 07:57:00,
2013-06-18 04:02:00,73.9,69.4,29.95,NW,325,0.0,1.0,86,0.00,,,0.00,meteohub,2013-06-18 08:02:00,
2013-06-18 04:07:00,73.9,69.4,29.95,NNW,329,0.0,1.0,86,0.00,,,0.00,meteohub,2013-06-18 08:07:00,
2013-06-18 04:12:00,73.9,69.4,29.95,ENE,68,0.0,2.0,86,0.00,,,0.00,meteohub,2013-06-18 08:12:00,
2013-06-18 04:17:00,73.9,69.4,29.95,ENE,71,0.0,2.0,86,0.00,,,0.00,meteohub,2013-06-18 08:17:00,
2013-06-18 04:22:00,73.9,69.4,29.94,ENE,71,0.0,2.0,86,0.00,,,0.00,meteohub,2013-06-18 08:22:00,
2013-06-18 04:27:00,73.9,69.4,29.94,ENE,71,0.0,2.0,86,0.00,,,0.00,meteohub,2013-06-18 08:27:00,
2013-06-18 04:32:00,73.9,69.4,29.94,ENE,71,0.0,2.0,86,0.00,,,0.00,meteohub,2013-06-18 08:32:00,
2013-06-18 04:37:00,73.8,69.3,29.94,ENE,71,0.0,1.0,86,0.00,,,0.00,meteohub,2013-06-18 08:37:00,
2013-06-18 04:42:00,73.8,69.3,29.94,ENE,71,0.0,1.0,86,0.00,,,0.00,meteohub,2013-06-18 08:42:00,
2013-06-18 04:47:00,73.9,69.4,29.94,ENE,71,0.0,1.0,86,0.00,,,0.00,meteohub,2013-06-18 08:47:00,
2013-06-18 04:52:00,73.9,69.4,29.94,ENE,71,0.0,1.0,86,0.00,,,0.00,meteohub,2013-06-18 08:52:00,
2013-06-18 04:58:00,73.8,69.3,29.94,ENE,71,0.0,1.0,86,0.00,,,0.00,meteohub,2013-06-18 08:58:00,
2013-06-18 05:03:00,73.8,69.3,29.94,ENE,71,0.0,1.0,86,0.00,,,0.00,meteohub,2013-06-18 09:03:00,
2013-06-18 05:08:00,73.8,69.3,29.94,ENE,71,0.0,1.0,86,0.00,,,0.00,meteohub,2013-06-18 09:08:00,
2013-06-18 05:13:00,73.8,69.3,29.94,ENE,71,0.0,0.0,86,0.00,,,0.00,meteohub,2013-06-18 09:13:00,
2013-06-18 05:18:00,73.8,69.3,29.95,ENE,71,0.0,0.0,86,0.00,,,0.00,meteohub,2013-06-18 09:18:00,
2013-06-18 05:23:00,73.8,69.3,29.95,ENE,71,0.0,0.0,86,0.00,,,0.00,meteohub,2013-06-18 09:23:00,
2013-06-18 05:28:00,73.8,69.3,29.95,ENE,71,0.0,0.0,86,0.00,,,0.00,meteohub,2013-06-18 09:28:00,
2013-06-18 05:33:00,73.8,69.3,29.94,ENE,71,0.0,0.0,86,0.00,,,0.00,meteohub,2013-06-18 09:33:00,
2013-06-18 05:38:00,73.8,69.3,29.94,ENE,71,0.0,0.0,86,0.00,,,0.00,meteohub,2013-06-18 09:38:00,
2013-06-18 05:43:00,73.8,69.6,29.94,ENE,71,0.0,0.0,87,0.00,,,0.00,meteohub,2013-06-18 09:43:00,
2013-06-18 05:48:00,73.8,69.3,29.94,ENE,71,0.0,1.0,86,0.00,,,0.00,meteohub,2013-06-18 09:48:00,
2013-06-18 05:53:00,73.8,69.6,29.94,ENE,71,0.0,1.0,87,0.00,,,0.00,meteohub,2013-06-18 09:53:00,
2013-06-18 05:58:00,73.8,69.6,29.94,ENE,71,0.0,1.0,87,0.00,,,0.00,meteohub,2013-06-18 09:58:00,
2013-06-18 06:04:00,73.9,69.8,29.94,SSW,209,0.0,1.0,87,0.00,,,0.00,meteohub,2013-06-18 10:04:00,
2013-06-18 06:09:00,73.9,69.8,29.94,SSW,209,0.0,4.0,87,0.00,,,0.00,meteohub,2013-06-18 10:09:00,
2013-06-18 06:14:00,73.9,69.8,29.94,SSW,209,0.0,4.0,87,0.00,,,0.00,meteohub,2013-06-18 10:14:00,
2013-06-18 06:19:00,73.9,69.8,29.95,SSW,209,0.0,4.0,87,0.00,,,0.00,meteohub,2013-06-18 10:19:00,
2013-06-18 06:24:00,73.9,69.8,29.95,SSW,209,0.0,0.0,87,0.00,,,0.00,meteohub,2013-06-18 10:24:00,
2013-06-18 06:29:00,73.9,69.8,29.95,SSW,209,0.0,0.0,87,0.00,,,0.00,meteohub,2013-06-18 10:29:00,
2013-06-18 06:34:00,73.9,69.8,29.95,SSW,209,0.0,0.0,87,0.00,,,0.00,meteohub,2013-06-18 10:34:00,
2013-06-18 06:39:00,73.8,69.6,29.95,SSW,209,0.0,0.0,87,0.00,,,0.00,meteohub,2013-06-18 10:39:00,
2013-06-18 06:44:00,73.8,69.6,29.95,SSW,209,0.0,0.0,87,0.00,,,0.00,meteohub,2013-06-18 10:44:00,
2013-06-18 06:49:00,73.8,69.6,29.96,SSW,209,0.0,0.0,87,0.00,,,0.00,meteohub,2013-06-18 10:49:00,
2013-06-18 06:54:00,73.8,69.6,29.96,SSW,209,0.0,0.0,87,0.00,,,0.00,meteohub,2013-06-18 10:54:00,
2013-06-18 06:59:00,73.8,69.6,29.96,SSW,209,0.0,0.0,87,0.00,,,0.00,meteohub,2013-06-18 10:59:00,
2013-06-18 07:04:00,73.9,69.8,29.97,SSW,209,0.0,0.0,87,0.00,,,0.00,meteohub,2013-06-18 11:04:00,
2013-06-18 07:10:00,73.9,69.8,29.97,SSW,209,0.0,0.0,87,0.00,,,0.00,meteohub,2013-06-18 11:10:00,
2013-06-18 07:15:00,73.9,70.2,29.97,SSW,209,0.0,0.0,88,0.00,,,0.00,meteohub,2013-06-18 11:15:00,
2013-06-18 07:20:00,74.1,70.3,29.98,SSW,209,0.0,0.0,88,0.00,,,0.00,meteohub,2013-06-18 11:20:00,
2013-06-18 07:25:00,74.5,70.7,29.98,SSW,209,0.0,1.0,88,0.00,,,0.00,meteohub,2013-06-18 11:25:00,
2013-06-18 07:30:00,74.7,70.9,29.98,SSW,209,0.0,3.0,88,0.00,,,0.00,meteohub,2013-06-18 11:30:00,
2013-06-18 07:35:00,75.0,71.2,29.98,SSW,209,0.0,3.0,88,0.00,,,0.00,meteohub,2013-06-18 11:35:00,
2013-06-18 07:40:00,75.4,71.2,29.98,SSW,209,0.0,3.0,87,0.00,,,0.00,meteohub,2013-06-18 11:40:00,
2013-06-18 07:45:00,75.7,71.6,29.98,SSW,209,0.0,1.0,87,0.00,,,0.00,meteohub,2013-06-18 11:45:00,
2013-06-18 07:50:00,75.9,71.8,29.98,SSW,209,0.0,2.0,87,0.00,,,0.00,meteohub,2013-06-18 11:50:00,
2013-06-18 07:55:00,76.5,72.3,29.98,SSW,209,0.0,2.0,87,0.00,,,0.00,meteohub,2013-06-18 11:55:00,
2013-06-18 08:00:00,76.8,72.7,29.98,SSW,209,0.0,2.0,87,0.00,,,0.00,meteohub,2013-06-18 12:00:00,
2013-06-18 08:05:00,77.4,73.2,29.99,South,186,0.0,1.0,87,0.00,,,0.00,meteohub,2013-06-18 12:05:00,
2013-06-18 08:11:00,77.7,73.2,29.99,SW,219,0.0,6.0,86,0.00,,,0.00,meteohub,2013-06-18 12:11:00,
2013-06-18 08:16:00,78.1,73.6,29.99,SW,219,0.0,6.0,86,0.00,,,0.00,meteohub,2013-06-18 12:16:00,
2013-06-18 08:21:00,78.6,73.8,29.99,SW,219,0.0,6.0,85,0.00,,,0.00,meteohub,2013-06-18 12:21:00,
2013-06-18 08:26:00,79.0,73.8,29.99,SW,219,2.0,3.0,84,0.00,,,0.00,meteohub,2013-06-18 12:26:00,
2013-06-18 08:31:00,79.2,73.9,29.99,SW,219,0.0,4.0,84,0.00,,,0.00,meteohub,2013-06-18 12:31:00,
2013-06-18 08:36:00,79.5,73.9,29.99,SW,219,0.0,4.0,83,0.00,,,0.00,meteohub,2013-06-18 12:36:00,
2013-06-18 08:41:00,79.9,74.3,29.99,SW,219,0.0,4.0,83,0.00,,,0.00,meteohub,2013-06-18 12:41:00,
2013-06-18 08:46:00,80.1,74.1,29.99,SW,219,0.0,3.0,82,0.00,,,0.00,meteohub,2013-06-18 12:46:00,
2013-06-18 08:51:00,80.4,74.5,29.99,SSW,209,1.0,3.0,82,0.00,,,0.00,meteohub,2013-06-18 12:51:00,
2013-06-18 08:56:00,81.1,74.7,29.99,SSW,209,0.0,3.0,81,0.00,,,0.00,meteohub,2013-06-18 12:56:00,
2013-06-18 09:01:00,81.1,74.3,29.99,SSW,209,0.0,3.0,80,0.00,,,0.00,meteohub,2013-06-18 13:01:00,
2013-06-18 09:07:00,81.3,74.1,29.99,SW,234,1.0,4.0,79,0.00,,,0.00,meteohub,2013-06-18 13:07:00,
2013-06-18 09:12:00,81.7,74.5,29.99,West,263,1.0,4.0,79,0.00,,,0.00,meteohub,2013-06-18 13:12:00,
2013-06-18 09:17:00,82.0,74.1,29.99,SW,227,0.0,5.0,77,0.00,,,0.00,meteohub,2013-06-18 13:17:00,
2013-06-18 09:22:00,82.2,74.3,29.99,SW,224,1.0,5.0,77,0.00,,,0.00,meteohub,2013-06-18 13:22:00,
2013-06-18 09:27:00,82.8,74.8,29.99,SW,224,0.0,5.0,77,0.00,,,0.00,meteohub,2013-06-18 13:27:00,
2013-06-18 09:32:00,82.9,74.1,29.99,WSW,246,0.0,7.0,75,0.00,,,0.00,meteohub,2013-06-18 13:32:00,
2013-06-18 09:37:00,83.1,74.3,29.99,East,96,2.0,7.0,75,0.00,,,0.00,meteohub,2013-06-18 13:37:00,
2013-06-18 09:42:00,83.5,74.3,29.99,SW,216,0.0,7.0,74,0.00,,,0.00,meteohub,2013-06-18 13:42:00,
2013-06-18 09:47:00,83.7,74.1,29.99,SW,226,0.0,6.0,73,0.00,,,0.00,meteohub,2013-06-18 13:47:00,
2013-06-18 09:52:00,83.5,73.9,29.99,West,260,0.0,5.0,73,0.00,,,0.00,meteohub,2013-06-18 13:52:00,
2013-06-18 09:57:00,83.5,73.9,29.99,West,261,0.0,4.0,73,0.00,,,0.00,meteohub,2013-06-18 13:57:00,
2013-06-18 10:02:00,83.8,73.8,29.99,SW,224,2.0,3.0,72,0.00,,,0.00,meteohub,2013-06-18 14:02:00,
2013-06-18 10:07:00,84.0,73.9,29.99,SSW,212,1.0,6.0,72,0.00,,,0.00,meteohub,2013-06-18 14:07:00,
2013-06-18 10:12:00,84.6,74.5,29.99,North,350,0.0,6.0,72,0.00,,,0.00,meteohub,2013-06-18 14:12:00,
2013-06-18 10:17:00,85.1,74.1,29.99,NNW,343,0.0,6.0,70,0.00,,,0.00,meteohub,2013-06-18 14:17:00,
2013-06-18 10:22:00,85.1,73.4,29.99,SW,236,0.0,5.0,68,0.00,,,0.00,meteohub,2013-06-18 14:22:00,
2013-06-18 10:27:00,85.1,73.4,29.99,SW,230,2.0,7.0,68,0.00,,,0.00,meteohub,2013-06-18 14:27:00,
2013-06-18 10:32:00,85.3,73.6,29.99,SW,232,0.0,7.0,68,0.00,,,0.00,meteohub,2013-06-18 14:32:00,
2013-06-18 10:37:00,85.3,73.0,29.99,SW,220,0.0,7.0,67,0.00,,,0.00,meteohub,2013-06-18 14:37:00,
2013-06-18 10:42:00,85.3,73.6,29.99,WSW,247,2.0,6.0,68,0.00,,,0.00,meteohub,2013-06-18 14:42:00,
2013-06-18 10:47:00,85.6,73.0,29.99,SSW,212,0.0,6.0,66,0.00,,,0.00,meteohub,2013-06-18 14:47:00,
2013-06-18 10:52:00,85.8,72.7,29.99,WSW,246,0.0,6.0,65,0.00,,,0.00,meteohub,2013-06-18 14:52:00,
2013-06-18 10:57:00,86.2,73.0,29.99,SSW,212,0.0,6.0,65,0.00,,,0.00,meteohub,2013-06-18 14:57:00,
2013-06-18 11:02:00,86.5,72.9,29.99,SSW,213,3.0,6.0,64,0.00,,,0.00,meteohub,2013-06-18 15:02:00,
2013-06-18 11:07:00,86.7,73.0,29.99,SW,227,1.0,8.0,64,0.00,,,0.00,meteohub,2013-06-18 15:07:00,
2013-06-18 11:12:00,87.3,72.7,29.99,South,185,1.0,8.0,62,0.00,,,0.00,meteohub,2013-06-18 15:12:00,
2013-06-18 11:17:00,87.4,72.9,29.99,WSW,251,0.0,8.0,62,0.00,,,0.00,meteohub,2013-06-18 15:17:00,
2013-06-18 11:22:00,88.0,73.4,29.99,SE,134,0.0,7.0,62,0.00,,,0.00,meteohub,2013-06-18 15:22:00,
2013-06-18 11:27:00,88.2,72.5,29.99,SW,216,4.0,7.0,60,0.00,,,0.00,meteohub,2013-06-18 15:27:00,
2013-06-18 11:32:00,88.3,72.1,29.99,SW,234,2.0,10.0,59,0.00,,,0.00,meteohub,2013-06-18 15:32:00,
2013-06-18 11:38:00,88.5,72.9,29.99,SSW,206,1.0,10.0,60,0.00,,,0.00,meteohub,2013-06-18 15:38:00,
2013-06-18 11:43:00,89.1,72.9,29.99,SSW,206,1.0,10.0,59,0.00,,,0.00,meteohub,2013-06-18 15:43:00,
2013-06-18 11:48:00,88.9,71.1,29.99,SSW,203,2.0,6.0,56,0.00,,,0.00,meteohub,2013-06-18 15:48:00,
2013-06-18 11:53:00,88.5,71.8,29.99,WSW,239,7.0,7.0,58,0.00,,,0.00,meteohub,2013-06-18 15:53:00,
2013-06-18 11:58:00,88.5,72.3,29.99,SW,230,0.0,10.0,59,0.00,,,0.00,meteohub,2013-06-18 15:58:00,
2013-06-18 12:03:00,88.5,70.9,29.99,SSW,196,0.0,10.0,56,0.00,,,0.00,meteohub,2013-06-18 16:03:00,
2013-06-18 12:08:00,89.1,72.3,29.99,WSW,244,0.0,10.0,58,0.00,,,0.00,meteohub,2013-06-18 16:08:00,
2013-06-18 12:13:00,89.2,71.4,29.99,SW,232,5.0,6.0,56,0.00,,,0.00,meteohub,2013-06-18 16:13:00,
2013-06-18 12:18:00,89.2,72.0,29.99,SW,234,1.0,6.0,57,0.00,,,0.00,meteohub,2013-06-18 16:18:00,
2013-06-18 12:23:00,89.4,71.6,29.99,SW,224,1.0,8.0,56,0.00,,,0.00,meteohub,2013-06-18 16:23:00,
2013-06-18 12:28:00,89.8,72.0,29.99,South,175,3.0,8.0,56,0.00,,,0.00,meteohub,2013-06-18 16:28:00,
2013-06-18 12:33:00,89.8,71.4,29.99,SSW,195,1.0,10.0,55,0.00,,,0.00,meteohub,2013-06-18 16:33:00,
2013-06-18 12:38:00,90.0,71.1,29.99,SSW,200,3.0,10.0,54,0.00,,,0.00,meteohub,2013-06-18 16:38:00,
2013-06-18 12:43:00,89.4,70.5,29.99,SW,223,2.0,10.0,54,0.00,,,0.00,meteohub,2013-06-18 16:43:00,
2013-06-18 12:49:00,88.9,71.1,29.99,SSW,212,2.0,10.0,56,0.00,,,0.00,meteohub,2013-06-18 16:49:00,
2013-06-18 12:54:00,89.1,70.7,29.99,SSW,195,5.0,10.0,55,0.00,,,0.00,meteohub,2013-06-18 16:54:00,
2013-06-18 12:59:00,89.2,70.3,29.99,SSW,213,5.0,8.0,54,0.00,,,0.00,meteohub,2013-06-18 16:59:00,
2013-06-18 13:04:00,89.8,70.3,29.98,NE,34,1.0,8.0,53,0.00,,,0.00,meteohub,2013-06-18 17:04:00,
2013-06-18 13:09:00,90.1,70.2,29.98,SW,227,6.0,10.0,52,0.00,,,0.00,meteohub,2013-06-18 17:09:00,
2013-06-18 13:14:00,90.3,70.9,29.98,SW,233,0.0,10.0,53,0.00,,,0.00,meteohub,2013-06-18 17:14:00,
2013-06-18 13:19:00,90.7,71.2,29.98,SSW,212,1.0,10.0,53,0.00,,,0.00,meteohub,2013-06-18 17:19:00,
2013-06-18 13:24:00,90.7,70.7,29.98,SW,226,5.0,9.0,52,0.00,,,0.00,meteohub,2013-06-18 17:24:00,
2013-06-18 13:29:00,90.7,70.7,29.98,SW,236,0.0,9.0,52,0.00,,,0.00,meteohub,2013-06-18 17:29:00,
2013-06-18 13:34:00,91.2,71.6,29.97,WNW,284,1.0,9.0,53,0.00,,,0.00,meteohub,2013-06-18 17:34:00,
2013-06-18 13:39:00,91.4,70.7,29.97,SSW,212,2.0,8.0,51,0.00,,,0.00,meteohub,2013-06-18 17:39:00,
2013-06-18 13:44:00,91.4,70.2,29.97,SW,230,8.0,11.0,50,0.00,,,0.00,meteohub,2013-06-18 17:44:00,
2013-06-18 13:49:00,91.4,71.2,29.96,WNW,287,0.0,11.0,52,0.00,,,0.00,meteohub,2013-06-18 17:49:00,
2013-06-18 13:55:00,91.6,71.4,29.96,West,260,2.0,11.0,52,0.00,,,0.00,meteohub,2013-06-18 17:55:00,
2013-06-18 14:00:00,91.4,70.7,29.96,SW,219,5.0,8.0,51,0.00,,,0.00,meteohub,2013-06-18 18:00:00,
2013-06-18 14:05:00,91.0,70.3,29.96,SW,226,4.0,9.0,51,0.00,,,0.00,meteohub,2013-06-18 18:05:00,
2013-06-18 14:10:00,91.0,70.9,29.96,SW,222,6.0,10.0,52,0.00,,,0.00,meteohub,2013-06-18 18:10:00,
2013-06-18 14:15:00,91.2,71.6,29.96,SSW,195,1.0,10.0,53,0.00,,,0.00,meteohub,2013-06-18 18:15:00,
2013-06-18 14:20:00,91.4,70.7,29.96,SW,219,0.0,10.0,51,0.00,,,0.00,meteohub,2013-06-18 18:20:00,
2013-06-18 14:25:00,91.2,70.5,29.96,West,281,0.0,8.0,51,0.00,,,0.00,meteohub,2013-06-18 18:25:00,
2013-06-18 14:30:00,91.0,71.6,29.96,SW,232,1.0,10.0,53,0.00,,,0.00,meteohub,2013-06-18 18:30:00,
2013-06-18 14:35:00,90.7,70.7,29.95,SSW,196,4.0,10.0,52,0.00,,,0.00,meteohub,2013-06-18 18:35:00,
2013-06-18 14:40:00,90.7,71.2,29.95,SW,226,1.0,10.0,53,0.00,,,0.00,meteohub,2013-06-18 18:40:00,
2013-06-18 14:45:00,91.0,71.6,29.95,NNW,344,2.0,8.0,53,0.00,,,0.00,meteohub,2013-06-18 18:45:00,
2013-06-18 14:50:00,91.0,70.9,29.94,SW,232,1.0,8.0,52,0.00,,,0.00,meteohub,2013-06-18 18:50:00,
2013-06-18 14:56:00,91.0,71.6,29.94,SSW,195,5.0,8.0,53,0.00,,,0.00,meteohub,2013-06-18 18:56:00,
2013-06-18 15:01:00,90.5,70.5,29.94,South,178,1.0,8.0,52,0.00,,,0.00,meteohub,2013-06-18 19:01:00,
2013-06-18 15:06:00,90.3,69.8,29.94,WSW,239,1.0,8.0,51,0.00,,,0.00,meteohub,2013-06-18 19:06:00,
2013-06-18 15:11:00,90.5,71.1,29.94,WSW,241,0.0,8.0,53,0.00,,,0.00,meteohub,2013-06-18 19:11:00,
2013-06-18 15:16:00,90.7,71.2,29.94,South,179,7.0,8.0,53,0.00,,,0.00,meteohub,2013-06-18 19:16:00,
2013-06-18 15:21:00,91.2,71.1,29.94,WSW,248,0.0,8.0,52,0.00,,,0.00,meteohub,2013-06-18 19:21:00,
2013-06-18 15:26:00,91.6,70.9,29.94,SSW,212,4.0,7.0,51,0.00,,,0.00,meteohub,2013-06-18 19:26:00,
2013-06-18 15:31:00,91.4,69.6,29.94,SSW,195,2.0,7.0,49,0.00,,,0.00,meteohub,2013-06-18 19:31:00,
2013-06-18 15:36:00,91.6,69.8,29.94,SW,224,1.0,7.0,49,0.00,,,0.00,meteohub,2013-06-18 19:36:00,
2013-06-18 15:41:00,91.6,70.3,29.94,SW,233,2.0,10.0,50,0.00,,,0.00,meteohub,2013-06-18 19:41:00,
2013-06-18 15:46:00,91.6,70.3,29.94,SW,233,5.0,10.0,50,0.00,,,0.00,meteohub,2013-06-18 19:46:00,
2013-06-18 15:51:00,91.6,69.8,29.94,SSW,208,2.0,10.0,49,0.00,,,0.00,meteohub,2013-06-18 19:51:00,
2013-06-18 15:57:00,91.6,69.8,29.94,North,356,1.0,12.0,49,0.00,,,0.00,meteohub,2013-06-18 19:57:00,
2013-06-18 16:02:00,91.6,70.3,29.94,North,0,3.0,12.0,50,0.00,,,0.00,meteohub,2013-06-18 20:02:00,
2013-06-18 16:07:00,91.4,69.6,29.93,SW,215,1.0,12.0,49,0.00,,,0.00,meteohub,2013-06-18 20:07:00,
2013-06-18 16:12:00,91.4,69.6,29.93,SW,227,5.0,12.0,49,0.00,,,0.00,meteohub,2013-06-18 20:12:00,
2013-06-18 16:17:00,91.2,70.0,29.93,SSW,212,0.0,12.0,50,0.00,,,0.00,meteohub,2013-06-18 20:17:00,
2013-06-18 16:22:00,91.2,70.0,29.93,SSW,213,4.0,8.0,50,0.00,,,0.00,meteohub,2013-06-18 20:22:00,
2013-06-18 16:27:00,91.2,69.4,29.93,WSW,251,2.0,8.0,49,0.00,,,0.00,meteohub,2013-06-18 20:27:00,
2013-06-18 16:32:00,91.2,69.4,29.93,WNW,302,1.0,7.0,49,0.00,,,0.00,meteohub,2013-06-18 20:32:00,
2013-06-18 16:37:00,91.4,70.2,29.93,WSW,253,1.0,7.0,50,0.00,,,0.00,meteohub,2013-06-18 20:37:00,
2013-06-18 16:42:00,91.6,69.8,29.93,SW,232,1.0,7.0,49,0.00,,,0.00,meteohub,2013-06-18 20:42:00,
2013-06-18 16:48:00,91.6,69.8,29.92,SW,226,5.0,7.0,49,0.00,,,0.00,meteohub,2013-06-18 20:48:00,
2013-06-18 16:53:00,91.4,69.6,29.92,SW,227,4.0,8.0,49,0.00,,,0.00,meteohub,2013-06-18 20:53:00,
2013-06-18 16:58:00,91.2,70.0,29.92,SW,229,3.0,8.0,50,0.00,,,0.00,meteohub,2013-06-18 20:58:00,
2013-06-18 17:03:00,91.2,70.0,29.92,SSW,206,2.0,8.0,50,0.00,,,0.00,meteohub,2013-06-18 21:03:00,
2013-06-18 17:08:00,91.2,70.0,29.92,North,0,0.0,8.0,50,0.00,,,0.00,meteohub,2013-06-18 21:08:00,
2013-06-18 17:13:00,91.2,70.0,29.92,SW,227,3.0,9.0,50,0.00,,,0.00,meteohub,2013-06-18 21:13:00,
2013-06-18 17:18:00,91.0,70.3,29.92,SW,219,2.0,9.0,51,0.00,,,0.00,meteohub,2013-06-18 21:18:00,
2013-06-18 17:23:00,91.0,70.3,29.92,WSW,250,3.0,9.0,51,0.00,,,0.00,meteohub,2013-06-18 21:23:00,
2013-06-18 17:28:00,90.7,70.0,29.92,SW,224,6.0,7.0,51,0.00,,,0.00,meteohub,2013-06-18 21:28:00,
2013-06-18 17:33:00,90.1,70.7,29.91,SW,232,7.0,7.0,53,0.00,,,0.00,meteohub,2013-06-18 21:33:00,
2013-06-18 17:38:00,90.0,70.5,29.91,SW,226,4.0,8.0,53,0.00,,,0.00,meteohub,2013-06-18 21:38:00,
2013-06-18 17:43:00,90.0,70.5,29.91,SW,217,5.0,10.0,53,0.00,,,0.00,meteohub,2013-06-18 21:43:00,
2013-06-18 17:48:00,90.0,70.5,29.91,NW,320,2.0,10.0,53,0.00,,,0.00,meteohub,2013-06-18 21:48:00,
2013-06-18 17:54:00,89.8,70.3,29.91,SW,227,2.0,8.0,53,0.00,,,0.00,meteohub,2013-06-18 21:54:00,
2013-06-18 17:59:00,89.4,70.5,29.91,SW,220,1.0,8.0,54,0.00,,,0.00,meteohub,2013-06-18 21:59:00,
2013-06-18 18:04:00,89.2,70.9,29.91,SW,223,3.0,8.0,55,0.00,,,0.00,meteohub,2013-06-18 22:04:00,
2013-06-18 18:09:00,89.2,70.9,29.91,WSW,239,5.0,8.0,55,0.00,,,0.00,meteohub,2013-06-18 22:09:00,
2013-06-18 18:14:00,89.1,70.2,29.91,SW,224,2.0,8.0,54,0.00,,,0.00,meteohub,2013-06-18 22:14:00,
2013-06-18 18:19:00,88.9,70.7,29.91,SW,223,2.0,7.0,55,0.00,,,0.00,meteohub,2013-06-18 22:19:00,
2013-06-18 18:24:00,88.3,70.2,29.91,SW,230,2.0,7.0,55,0.00,,,0.00,meteohub,2013-06-18 22:24:00,
2013-06-18 18:29:00,88.0,70.3,29.91,WSW,240,1.0,7.0,56,0.00,,,0.00,meteohub,2013-06-18 22:29:00,
2013-06-18 18:34:00,87.8,70.2,29.91,WSW,243,1.0,6.0,56,0.00,,,0.00,meteohub,2013-06-18 22:34:00,
2013-06-18 18:39:00,87.6,70.0,29.91,West,277,0.0,7.0,56,0.00,,,0.00,meteohub,2013-06-18 22:39:00,
2013-06-18 18:44:00,87.6,70.0,29.91,NW,312,0.0,7.0,56,0.00,,,0.00,meteohub,2013-06-18 22:44:00,
2013-06-18 18:49:00,87.4,70.3,29.91,West,260,1.0,7.0,57,0.00,,,0.00,meteohub,2013-06-18 22:49:00,
2013-06-18 18:54:00,87.1,70.0,29.91,NW,316,0.0,7.0,57,0.00,,,0.00,meteohub,2013-06-18 22:54:00,
2013-06-18 18:59:00,86.7,70.2,29.91,WSW,243,2.0,6.0,58,0.00,,,0.00,meteohub,2013-06-18 22:59:00,
2013-06-18 19:05:00,86.5,69.4,29.91,WSW,241,1.0,6.0,57,0.00,,,0.00,meteohub,2013-06-18 23:05:00,
2013-06-18 19:10:00,86.5,70.0,29.91,WSW,237,0.0,6.0,58,0.00,,,0.00,meteohub,2013-06-18 23:10:00,
2013-06-18 19:15:00,86.2,70.2,29.91,SW,233,1.0,8.0,59,0.00,,,0.00,meteohub,2013-06-18 23:15:00,
2013-06-18 19:20:00,85.8,69.8,29.90,SW,220,1.0,8.0,59,0.00,,,0.00,meteohub,2013-06-18 23:20:00,
2013-06-18 19:25:00,85.6,70.2,29.90,SW,220,1.0,8.0,60,0.00,,,0.00,meteohub,2013-06-18 23:25:00,
2013-06-18 19:30:00,85.6,70.7,29.90,SSW,213,0.0,8.0,61,0.00,,,0.00,meteohub,2013-06-18 23:30:00,
2013-06-18 19:35:00,85.5,70.5,29.91,NNW,346,1.0,8.0,61,0.00,,,0.00,meteohub,2013-06-18 23:35:00,
2013-06-18 19:40:00,85.3,70.3,29.91,South,174,3.0,8.0,61,0.00,,,0.00,meteohub,2013-06-18 23:40:00,
2013-06-18 19:45:00,85.1,70.5,29.91,SW,222,1.0,6.0,62,0.00,,,0.00,meteohub,2013-06-18 23:45:00,
2013-06-18 19:50:00,84.9,70.5,29.91,SW,222,1.0,6.0,62,0.00,,,0.00,meteohub,2013-06-18 23:50:00,
2013-06-18 19:55:00,84.7,70.7,29.91,SW,223,2.0,5.0,63,0.00,,,0.00,meteohub,2013-06-18 23:55:00,
2013-06-18 20:01:00,84.6,71.1,29.91,SW,226,1.0,6.0,64,0.00,,,0.00,meteohub,2013-06-19 00:01:00,
2013-06-18 20:06:00,84.0,70.5,29.92,SW,226,2.0,6.0,64,0.00,,,0.00,meteohub,2013-06-19 00:06:00,
2013-06-18 20:11:00,84.0,71.1,29.92,SW,226,2.0,6.0,65,0.00,,,0.00,meteohub,2013-06-19 00:11:00,
2013-06-18 20:16:00,83.8,70.9,29.92,SW,224,0.0,2.0,65,0.00,,,0.00,meteohub,2013-06-19 00:16:00,
2013-06-18 20:21:00,83.7,71.1,29.91,SW,224,0.0,2.0,66,0.00,,,0.00,meteohub,2013-06-19 00:21:00,
2013-06-18 20:26:00,83.1,71.1,29.91,SW,224,0.0,2.0,67,0.00,,,0.00,meteohub,2013-06-19 00:26:00,
2013-06-18 20:31:00,82.9,70.9,29.91,SW,224,0.0,3.0,67,0.00,,,0.00,meteohub,2013-06-19 00:31:00,
2013-06-18 20:36:00,82.8,71.1,29.92,SW,224,0.0,3.0,68,0.00,,,0.00,meteohub,2013-06-19 00:36:00,
2013-06-18 20:41:00,82.6,70.9,29.92,SW,224,0.0,3.0,68,0.00,,,0.00,meteohub,2013-06-19 00:41:00,
2013-06-18 20:46:00,82.4,71.2,29.92,SW,226,0.0,2.0,69,0.00,,,0.00,meteohub,2013-06-19 00:46:00,
2013-06-18 20:51:00,82.2,71.1,29.93,SW,226,0.0,2.0,69,0.00,,,0.00,meteohub,2013-06-19 00:51:00,
2013-06-18 20:56:00,82.0,71.2,29.93,SW,224,0.0,2.0,70,0.00,,,0.00,meteohub,2013-06-19 00:56:00,
2013-06-18 21:02:00,81.9,71.1,29.93,SW,226,0.0,2.0,70,0.00,,,0.00,meteohub,2013-06-19 01:02:00,
2013-06-18 21:07:00,81.7,71.4,29.93,SW,224,0.0,2.0,71,0.00,,,0.00,meteohub,2013-06-19 01:07:00,
2013-06-18 21:12:00,81.3,71.1,29.93,SW,224,0.0,1.0,71,0.00,,,0.00,meteohub,2013-06-19 01:12:00,
2013-06-18 21:17:00,81.1,70.9,29.93,SW,226,0.0,1.0,71,0.00,,,0.00,meteohub,2013-06-19 01:17:00,
2013-06-18 21:22:00,81.1,71.2,29.93,SW,226,0.0,0.0,72,0.00,,,0.00,meteohub,2013-06-19 01:22:00,
2013-06-18 21:27:00,81.1,71.2,29.93,SW,224,0.0,0.0,72,0.00,,,0.00,meteohub,2013-06-19 01:27:00,
2013-06-18 21:32:00,81.0,71.4,29.93,SW,226,0.0,0.0,73,0.00,,,0.00,meteohub,2013-06-19 01:32:00,
2013-06-18 21:37:00,80.8,71.2,29.94,SW,226,0.0,0.0,73,0.00,,,0.00,meteohub,2013-06-19 01:37:00,
2013-06-18 21:42:00,80.4,70.9,29.94,SW,226,0.0,0.0,73,0.00,,,0.00,meteohub,2013-06-19 01:42:00,
2013-06-18 21:47:00,80.2,71.2,29.94,SW,224,0.0,1.0,74,0.00,,,0.00,meteohub,2013-06-19 01:47:00,
2013-06-18 21:52:00,80.2,71.2,29.94,SW,224,0.0,1.0,74,0.00,,,0.00,meteohub,2013-06-19 01:52:00,
2013-06-18 21:57:00,80.1,71.1,29.94,SW,224,0.0,1.0,74,0.00,,,0.00,meteohub,2013-06-19 01:57:00,
2013-06-18 22:02:00,79.9,71.2,29.94,SW,224,0.0,1.0,75,0.00,,,0.00,meteohub,2013-06-19 02:02:00,
2013-06-18 22:07:00,79.9,71.2,29.94,SW,224,0.0,1.0,75,0.00,,,0.00,meteohub,2013-06-19 02:07:00,
2013-06-18 22:12:00,79.9,71.2,29.94,SW,224,0.0,0.0,75,0.00,,,0.00,meteohub,2013-06-19 02:12:00,
2013-06-18 22:17:00,79.9,71.2,29.94,SW,224,0.0,0.0,75,0.00,,,0.00,meteohub,2013-06-19 02:17:00,
2013-06-18 22:22:00,79.5,70.9,29.95,SW,224,0.0,0.0,75,0.00,,,0.00,meteohub,2013-06-19 02:22:00,
2013-06-18 22:27:00,79.3,71.1,29.95,SW,224,0.0,0.0,76,0.00,,,0.00,meteohub,2013-06-19 02:27:00,
2013-06-18 22:32:00,79.3,71.1,29.95,SW,224,0.0,0.0,76,0.00,,,0.00,meteohub,2013-06-19 02:32:00,
2013-06-18 22:37:00,79.3,71.4,29.95,SW,224,0.0,0.0,77,0.00,,,0.00,meteohub,2013-06-19 02:37:00,
2013-06-18 22:42:00,79.2,71.2,29.95,SW,224,0.0,0.0,77,0.00,,,0.00,meteohub,2013-06-19 02:42:00,
2013-06-18 22:47:00,79.0,71.1,29.95,SW,224,0.0,0.0,77,0.00,,,0.00,meteohub,2013-06-19 02:47:00,
2013-06-18 22:52:00,78.8,71.1,29.95,SW,224,0.0,0.0,77,0.00,,,0.00,meteohub,2013-06-19 02:52:00,
2013-06-18 22:57:00,78.6,70.9,29.95,SW,224,0.0,0.0,77,0.00,,,0.00,meteohub,2013-06-19 02:57:00,
2013-06-18 23:02:00,78.6,70.9,29.95,SW,224,0.0,0.0,77,0.00,,,0.00,meteohub,2013-06-19 03:02:00,
2013-06-18 23:07:00,78.4,70.7,29.96,SW,224,0.0,0.0,77,0.00,,,0.00,meteohub,2013-06-19 03:07:00,
2013-06-18 23:12:00,78.3,70.5,29.96,SW,224,0.0,0.0,77,0.00,,,0.00,meteohub,2013-06-19 03:12:00,
2013-06-18 23:17:00,78.1,70.3,29.96,SW,224,0.0,0.0,77,0.00,,,0.00,meteohub,2013-06-19 03:17:00,
2013-06-18 23:22:00,78.1,70.7,29.95,SW,224,0.0,0.0,78,0.00,,,0.00,meteohub,2013-06-19 03:22:00,
2013-06-18 23:27:00,78.1,70.7,29.95,SW,224,0.0,0.0,78,0.00,,,0.00,meteohub,2013-06-19 03:27:00,
2013-06-18 23:32:00,77.9,70.5,29.95,SW,224,0.0,0.0,78,0.00,,,0.00,meteohub,2013-06-19 03:32:00,
2013-06-18 23:37:00,77.7,70.3,29.96,SW,224,0.0,0.0,78,0.00,,,0.00,meteohub,2013-06-19 03:37:00,
2013-06-18 23:42:00,77.5,70.2,29.96,SW,224,0.0,0.0,78,0.00,,,0.00,meteohub,2013-06-19 03:42:00,
2013-06-18 23:47:00,77.4,70.0,29.96,SW,224,0.0,0.0,78,0.00,,,0.00,meteohub,2013-06-19 03:47:00,
2013-06-18 23:52:00,77.2,69.8,29.95,SW,224,0.0,0.0,78,0.00,,,0.00,meteohub,2013-06-19 03:52:00,
2013-06-18 23:57:00,77.0,69.6,29.95,SW,224,0.0,0.0,78,0.00,,,0.00,meteohub,2013-06-19 03:57:00,